createdAt,value
2018-07-17T00:02:16.004Z,68.10
2018-07-17T00:04:44.887Z,67.30
2018-07-17T00:07:13.719Z,68.20
2018-07-17T00:09:42.652Z,67.60
2018-07-17T00:12:11.485Z,67.30
2018-07-17T00:14:40.517Z,67.40
2018-07-17T00:17:09.360Z,67.70
2018-07-17T00:19:38.233Z,68.40
2018-07-17T00:22:07.058Z,69.20
2018-07-17T00:24:35.898Z,68.40
2018-07-17T00:27:04.768Z,67.90
2018-07-17T00:29:34.213Z,69.00
2018-07-17T00:32:03.104Z,69.80
2018-07-17T00:34:31.966Z,70.10
2018-07-17T00:37:01.453Z,68.50
2018-07-17T00:39:30.351Z,68.60
2018-07-17T00:41:59.172Z,68.20
2018-07-17T00:44:28.024Z,68.00
2018-07-17T00:46:56.834Z,68.60
2018-07-17T00:49:25.690Z,68.90
2018-07-17T00:51:54.490Z,69.00
2018-07-17T00:54:23.339Z,69.30
2018-07-17T00:56:52.163Z,70.00
2018-07-17T00:59:21.034Z,70.20
2018-07-17T01:01:54.976Z,70.30
2018-07-17T01:04:29.081Z,70.00
2018-07-17T01:07:03.220Z,70.10
2018-07-17T01:09:37.126Z,70.30
2018-07-17T01:12:11.062Z,70.80
2018-07-17T01:14:46.372Z,71.90
2018-07-17T01:17:16.031Z,71.70
2018-07-17T01:19:44.952Z,71.00
2018-07-17T01:22:13.775Z,70.80
2018-07-17T01:24:42.622Z,71.00
2018-07-17T01:27:11.476Z,72.00
2018-07-17T01:29:40.348Z,71.20
2018-07-17T01:32:09.166Z,70.90
2018-07-17T01:34:38.019Z,69.70
2018-07-17T01:37:06.843Z,70.60
2018-07-17T01:39:35.699Z,71.00
2018-07-17T01:42:04.513Z,70.40
2018-07-17T01:44:33.349Z,69.70
2018-07-17T01:47:02.170Z,69.50
2018-07-17T01:49:31.035Z,69.10
2018-07-17T01:51:59.900Z,69.90
2018-07-17T01:54:28.764Z,70.30
2018-07-17T01:56:57.570Z,70.00
2018-07-17T01:59:26.415Z,69.40
2018-07-17T02:01:55.245Z,69.30
2018-07-17T02:04:24.100Z,69.70
2018-07-17T02:06:52.919Z,70.30
2018-07-17T02:09:21.782Z,68.90
2018-07-17T02:11:50.602Z,70.20
2018-07-17T02:14:19.490Z,69.10
2018-07-17T02:16:53.039Z,69.40
2018-07-17T02:19:21.887Z,69.70
2018-07-17T02:21:50.717Z,68.70
2018-07-17T02:24:19.568Z,68.50
2018-07-17T02:26:48.391Z,68.60
2018-07-17T02:29:17.254Z,69.40
2018-07-17T02:31:46.071Z,69.00
2018-07-17T02:34:14.919Z,68.70
2018-07-17T02:36:43.757Z,68.60
2018-07-17T02:39:12.614Z,68.50
2018-07-17T02:41:41.441Z,68.60
2018-07-17T02:44:10.256Z,68.70
2018-07-17T02:46:39.109Z,69.00
2018-07-17T02:49:07.931Z,68.70
2018-07-17T02:51:36.810Z,68.80
2018-07-17T02:54:05.631Z,69.60
2018-07-17T02:56:34.488Z,69.00
2018-07-17T02:59:03.328Z,69.20
2018-07-17T03:01:32.225Z,69.00
2018-07-17T03:04:01.052Z,68.90
2018-07-17T03:06:29.939Z,68.70
2018-07-17T03:08:58.804Z,69.10
2018-07-17T03:11:27.663Z,70.30
2018-07-17T03:13:56.486Z,71.70
2018-07-17T03:16:25.367Z,70.80
2018-07-17T03:18:54.182Z,71.40
2018-07-17T03:21:23.027Z,70.70
2018-07-17T03:23:51.846Z,69.70
2018-07-17T03:26:20.725Z,69.40
2018-07-17T03:28:49.550Z,69.30
2018-07-17T03:31:18.438Z,69.40
2018-07-17T03:33:47.226Z,69.40
2018-07-17T03:36:16.079Z,70.40
2018-07-17T03:38:44.920Z,70.90
2018-07-17T03:41:13.769Z,70.70
2018-07-17T03:43:42.595Z,70.40
2018-07-17T03:46:11.458Z,70.10
2018-07-17T03:48:40.304Z,69.70
2018-07-17T03:51:09.192Z,70.10
2018-07-17T03:53:38.027Z,70.80
2018-07-17T03:56:07.002Z,70.40
2018-07-17T03:58:35.830Z,70.10
2018-07-17T04:01:04.743Z,70.20
2018-07-17T04:03:33.563Z,70.00
2018-07-17T04:06:02.440Z,70.30
2018-07-17T04:08:31.334Z,69.60
2018-07-17T04:11:00.216Z,69.20
2018-07-17T04:13:29.106Z,69.90
2018-07-17T04:15:57.978Z,70.00
2018-07-17T04:18:26.824Z,70.50
2018-07-17T04:20:56.003Z,71.10
2018-07-17T04:23:24.867Z,71.60
2018-07-17T04:25:53.749Z,71.90
2018-07-17T04:28:22.570Z,72.00
2018-07-17T04:30:51.443Z,71.50
2018-07-17T04:33:20.347Z,71.60
2018-07-17T04:35:49.230Z,70.70
2018-07-17T04:38:18.044Z,70.50
2018-07-17T04:40:46.926Z,71.60
2018-07-17T04:43:15.787Z,71.10
2018-07-17T04:45:44.623Z,73.10
2018-07-17T04:48:13.480Z,72.20
2018-07-17T04:50:42.346Z,72.20
2018-07-17T04:53:11.203Z,72.20
2018-07-17T04:55:40.054Z,71.80
2018-07-17T04:58:09.023Z,71.40
2018-07-17T05:00:37.960Z,70.80
2018-07-17T05:03:06.852Z,70.70
2018-07-17T05:05:35.662Z,71.10
2018-07-17T05:08:04.544Z,70.80
2018-07-17T05:10:33.436Z,71.40
2018-07-17T05:13:02.512Z,70.70
2018-07-17T05:17:59.807Z,71.30
2018-07-17T05:20:28.622Z,71.70
2018-07-17T05:22:57.573Z,72.10
2018-07-17T05:25:26.354Z,71.60
2018-07-17T05:27:55.203Z,71.70
2018-07-17T05:30:24.046Z,71.50
2018-07-17T05:32:52.887Z,73.30
2018-07-17T05:35:21.731Z,71.40
2018-07-17T05:37:50.621Z,71.10
2018-07-17T05:40:19.455Z,71.70
2018-07-17T05:42:48.307Z,71.90
2018-07-17T05:45:17.156Z,72.30
2018-07-17T05:47:46.047Z,72.30
2018-07-17T05:50:14.895Z,73.50
2018-07-17T05:52:43.733Z,72.80
2018-07-17T05:55:12.539Z,73.00
2018-07-17T05:57:41.443Z,73.10
2018-07-17T06:00:10.870Z,73.20
2018-07-17T06:02:39.822Z,73.10
2018-07-17T06:05:08.672Z,73.10
2018-07-17T06:10:06.191Z,73.30
2018-07-17T06:12:35.055Z,73.40
2018-07-17T06:15:03.904Z,73.40
2018-07-17T06:17:32.835Z,73.60
2018-07-17T06:20:01.712Z,73.70
2018-07-17T06:22:30.603Z,74.00
2018-07-17T06:24:59.462Z,73.20
2018-07-17T06:27:28.400Z,73.80
2018-07-17T06:29:57.249Z,73.80
2018-07-17T06:32:26.115Z,73.90
2018-07-17T06:34:54.927Z,73.90
2018-07-17T06:37:23.786Z,73.60
2018-07-17T06:39:52.658Z,73.40
2018-07-17T06:42:21.507Z,73.00
2018-07-17T06:44:50.323Z,72.70
2018-07-17T06:47:19.171Z,72.70
2018-07-17T06:49:47.995Z,72.50
2018-07-17T06:52:16.842Z,72.30
2018-07-17T06:54:46.247Z,72.60
2018-07-17T06:57:15.614Z,72.10
2018-07-17T06:59:45.014Z,72.30
2018-07-17T07:02:14.316Z,72.00
2018-07-17T07:04:43.746Z,71.80
2018-07-17T07:07:12.587Z,71.60
2018-07-17T07:09:41.438Z,71.40
2018-07-17T07:12:11.489Z,72.30
2018-07-17T07:14:41.151Z,71.30
2018-07-17T07:17:10.055Z,71.30
2018-07-17T07:19:39.093Z,71.20
2018-07-17T07:22:07.942Z,72.30
2018-07-17T07:24:36.798Z,71.40
2018-07-17T07:27:05.618Z,71.70
2018-07-17T07:29:34.509Z,72.00
2018-07-17T07:32:03.367Z,71.20
2018-07-17T07:34:32.273Z,71.00
2018-07-17T07:37:01.295Z,70.70
2018-07-17T07:39:30.463Z,70.60
2018-07-17T07:42:00.139Z,70.50
2018-07-17T07:44:29.020Z,70.40
2018-07-17T07:46:57.915Z,70.80
2018-07-17T07:49:26.811Z,71.30
2018-07-17T07:54:24.183Z,71.50
2018-07-17T07:56:52.999Z,71.20
2018-07-17T07:59:21.915Z,71.80
2018-07-17T08:01:50.743Z,72.20
2018-07-17T08:04:19.649Z,72.10
2018-07-17T08:06:48.597Z,72.10
2018-07-17T08:09:17.490Z,72.20
2018-07-17T08:11:46.414Z,71.00
2018-07-17T08:14:15.289Z,72.70
2018-07-17T08:16:44.175Z,72.90
2018-07-17T08:19:13.056Z,72.70
2018-07-17T08:21:41.964Z,73.40
2018-07-17T08:24:10.846Z,72.40
2018-07-17T08:26:39.820Z,72.50
2018-07-17T08:29:08.686Z,70.80
2018-07-17T08:31:37.519Z,69.70
2018-07-17T08:34:06.447Z,69.00
2018-07-17T08:36:35.288Z,68.60
2018-07-17T08:39:05.072Z,67.70
2018-07-17T08:41:33.927Z,67.50
2018-07-17T08:44:02.827Z,66.80
2018-07-17T08:46:31.717Z,66.90
2018-07-17T08:51:29.315Z,65.90
2018-07-17T08:53:58.147Z,65.60
2018-07-17T08:56:27.075Z,65.40
2018-07-17T08:58:56.058Z,65.10
2018-07-17T09:03:53.421Z,65.30
2018-07-17T09:06:23.104Z,64.70
2018-07-17T09:08:51.975Z,64.40
2018-07-17T09:11:20.856Z,64.30
2018-07-17T09:13:49.925Z,64.00
2018-07-17T09:16:18.847Z,63.40
2018-07-17T09:18:47.871Z,63.30
2018-07-17T09:21:18.284Z,63.50
2018-07-17T09:23:47.123Z,63.30
2018-07-17T09:26:16.071Z,63.40
2018-07-17T09:28:45.688Z,62.70
2018-07-17T09:31:14.662Z,63.10
2018-07-17T09:33:43.624Z,62.50
2018-07-17T09:36:12.496Z,62.20
2018-07-17T09:38:41.311Z,62.20
2018-07-17T09:41:11.066Z,62.00
2018-07-17T09:43:39.895Z,62.20
2018-07-17T09:46:08.845Z,61.80
2018-07-17T09:48:37.720Z,61.90
2018-07-17T09:51:07.024Z,61.20
2018-07-17T09:53:35.935Z,61.10
2018-07-17T09:56:04.840Z,61.50
2018-07-17T09:58:33.671Z,60.50
2018-07-17T10:01:07.648Z,60.10
2018-07-17T10:03:36.591Z,60.10
2018-07-17T10:06:05.451Z,60.10
2018-07-17T10:08:34.336Z,60.00
2018-07-17T10:11:03.212Z,59.90
2018-07-17T10:13:32.055Z,59.70
2018-07-17T10:16:01.032Z,59.70
2018-07-17T10:18:29.922Z,59.90
2018-07-17T10:20:58.871Z,59.50
2018-07-17T10:23:27.962Z,59.60
2018-07-17T10:25:56.878Z,59.30
2018-07-17T10:28:25.779Z,59.20
2018-07-17T10:30:54.652Z,59.00
2018-07-17T10:33:23.593Z,58.80
2018-07-17T10:35:52.511Z,58.70
2018-07-17T10:38:21.403Z,58.90
2018-07-17T10:40:50.287Z,58.40
2018-07-17T10:43:19.143Z,58.20
2018-07-17T10:45:48.088Z,58.40
2018-07-17T10:48:17.182Z,57.50
2018-07-17T10:50:46.575Z,57.20
2018-07-17T10:53:15.466Z,57.00
2018-07-17T10:55:44.391Z,57.20
2018-07-17T10:58:13.273Z,57.00
2018-07-17T11:00:42.244Z,56.90
2018-07-17T11:03:11.091Z,56.60
2018-07-17T11:05:39.939Z,57.10
2018-07-17T11:08:08.787Z,56.80
2018-07-17T11:10:37.631Z,56.40
2018-07-17T11:13:06.502Z,56.10
2018-07-17T11:15:35.407Z,56.40
2018-07-17T11:18:04.288Z,56.00
2018-07-17T11:20:33.134Z,55.90
2018-07-17T11:23:02.029Z,55.70
2018-07-17T11:25:31.238Z,55.50
2018-07-17T11:28:00.556Z,55.10
2018-07-17T11:30:29.531Z,55.70
2018-07-17T11:32:58.463Z,55.00
2018-07-17T11:35:27.340Z,55.30
2018-07-17T11:37:56.227Z,55.50
2018-07-17T11:40:25.051Z,55.40
2018-07-17T11:42:53.926Z,55.40
2018-07-17T11:45:22.901Z,55.30
2018-07-17T11:47:52.223Z,55.50
2018-07-17T11:50:21.098Z,55.00
2018-07-17T11:52:50.064Z,54.90
2018-07-17T11:55:19.022Z,55.40
2018-07-17T11:57:47.903Z,55.00
2018-07-17T12:00:16.753Z,55.20
2018-07-17T12:02:46.003Z,54.70
2018-07-17T12:05:14.824Z,54.40
2018-07-17T12:07:44.203Z,54.20
2018-07-17T12:10:13.319Z,54.10
2018-07-17T12:12:42.182Z,54.70
2018-07-17T12:15:11.081Z,53.90
2018-07-17T12:17:39.922Z,52.70
2018-07-17T12:20:08.924Z,53.10
2018-07-17T12:22:37.715Z,53.20
2018-07-17T12:25:06.554Z,53.20
2018-07-17T12:27:35.531Z,53.30
2018-07-17T12:30:05.431Z,53.20
2018-07-17T12:32:34.327Z,53.10
2018-07-17T12:35:03.597Z,52.90
2018-07-17T12:37:32.415Z,52.90
2018-07-17T12:40:01.435Z,52.10
2018-07-17T12:42:30.339Z,52.30
2018-07-17T12:44:59.191Z,51.70
2018-07-17T12:47:28.259Z,51.00
2018-07-17T12:49:57.251Z,51.00
2018-07-17T12:52:26.295Z,50.80
2018-07-17T12:54:55.274Z,50.90
2018-07-17T12:57:24.375Z,51.10
2018-07-17T12:59:53.215Z,50.30
2018-07-17T13:02:22.188Z,51.00
2018-07-17T13:04:51.632Z,50.90
2018-07-17T13:07:20.690Z,50.90
2018-07-17T13:09:49.934Z,50.20
2018-07-17T13:12:18.804Z,50.10
2018-07-17T13:14:47.905Z,49.50
2018-07-17T13:17:16.767Z,49.40
2018-07-17T13:19:46.254Z,49.50
2018-07-17T13:24:43.707Z,49.40
2018-07-17T13:27:12.883Z,49.60
2018-07-17T13:29:41.751Z,49.10
2018-07-17T13:32:10.598Z,49.40
2018-07-17T13:34:39.476Z,49.40
2018-07-17T13:37:08.678Z,48.90
2018-07-17T13:39:37.685Z,48.80
2018-07-17T13:42:06.748Z,48.30
2018-07-17T13:44:35.695Z,47.80
2018-07-17T13:47:04.627Z,47.40
2018-07-17T13:49:33.502Z,48.00
2018-07-17T13:52:02.326Z,48.10
2018-07-17T13:54:31.182Z,47.80
2018-07-17T13:57:00.139Z,47.30
2018-07-17T13:59:29.618Z,47.70
2018-07-17T14:01:58.462Z,47.50
2018-07-17T14:04:27.366Z,47.70
2018-07-17T14:06:56.445Z,47.70
2018-07-17T14:09:25.322Z,47.30
2018-07-17T14:11:54.163Z,47.10
2018-07-17T14:14:23.144Z,46.30
2018-07-17T14:16:54.152Z,45.90
2018-07-17T14:19:23.145Z,45.80
2018-07-17T14:21:53.618Z,45.80
2018-07-17T14:24:22.516Z,45.90
2018-07-17T14:26:51.540Z,45.90
2018-07-17T14:29:20.755Z,45.90
2018-07-17T14:31:50.708Z,45.90
2018-07-17T14:36:49.139Z,45.10
2018-07-17T14:39:18.891Z,45.10
2018-07-17T14:41:47.915Z,44.40
2018-07-17T14:44:16.815Z,44.40
2018-07-17T14:46:45.832Z,43.30
2018-07-17T14:51:43.379Z,43.80
2018-07-17T14:54:12.418Z,43.60
2018-07-17T14:56:42.031Z,42.90
2018-07-17T14:59:10.911Z,42.90
2018-07-17T15:01:43.947Z,42.50
2018-07-17T15:04:12.819Z,41.80
2018-07-17T15:06:41.679Z,41.50
2018-07-17T15:09:10.644Z,41.20
2018-07-17T15:11:39.486Z,41.20
2018-07-17T15:14:08.652Z,41.50
2018-07-17T15:16:37.803Z,41.30
2018-07-17T15:19:06.750Z,41.50
2018-07-17T15:24:04.471Z,41.20
2018-07-17T15:26:33.343Z,40.40
2018-07-17T15:29:09.781Z,41.00
2018-07-17T15:31:39.812Z,41.10
2018-07-17T15:34:08.682Z,41.10
2018-07-17T15:36:37.655Z,41.20
2018-07-17T15:39:09.015Z,40.90
2018-07-17T15:41:38.236Z,40.80
2018-07-17T15:44:07.238Z,40.50
2018-07-17T15:46:36.649Z,40.20
2018-07-17T15:49:05.571Z,40.30
2018-07-17T15:51:34.535Z,40.50
2018-07-17T15:54:03.510Z,40.50
2018-07-17T15:56:32.470Z,40.90
2018-07-17T15:59:01.562Z,41.40
2018-07-17T16:01:30.565Z,41.60
2018-07-17T16:03:59.642Z,41.60
2018-07-17T16:06:28.514Z,41.70
2018-07-17T16:08:57.519Z,41.50
2018-07-17T16:11:26.531Z,41.30
2018-07-17T16:13:55.569Z,41.10
2018-07-17T16:16:24.368Z,40.70
2018-07-17T16:18:53.684Z,40.40
2018-07-17T16:21:23.083Z,40.70
2018-07-17T16:23:52.055Z,40.70
2018-07-17T16:26:20.951Z,40.80
2018-07-17T16:28:49.879Z,40.90
2018-07-17T16:31:18.860Z,40.60
2018-07-17T16:33:48.796Z,41.20
2018-07-17T16:36:17.783Z,41.80
2018-07-17T16:38:46.775Z,41.80
2018-07-17T16:41:15.983Z,42.00
2018-07-17T16:43:44.934Z,42.50
2018-07-17T16:46:13.882Z,42.40
2018-07-17T16:48:42.852Z,42.70
2018-07-17T16:51:11.737Z,42.40
2018-07-17T16:56:09.127Z,41.80
2018-07-17T16:58:38.099Z,42.00
2018-07-17T17:01:07.026Z,41.80
2018-07-17T17:03:35.915Z,41.50
2018-07-17T17:06:04.823Z,40.80
2018-07-17T17:08:33.905Z,40.50
2018-07-17T17:11:02.771Z,40.40
2018-07-17T17:13:31.712Z,40.20
2018-07-17T17:16:00.763Z,40.50
2018-07-17T17:18:30.092Z,40.20
2018-07-17T17:20:58.993Z,40.00
2018-07-17T17:23:27.863Z,40.20
2018-07-17T17:25:56.747Z,39.80
2018-07-17T17:28:25.603Z,40.40
2018-07-17T17:30:54.506Z,40.40
2018-07-17T17:33:24.442Z,40.60
2018-07-17T17:35:53.291Z,40.80
2018-07-17T17:38:22.147Z,40.80
2018-07-17T17:40:51.023Z,40.80
2018-07-17T17:43:19.863Z,40.70
2018-07-17T17:45:48.771Z,41.10
2018-07-17T17:48:17.618Z,41.10
2018-07-17T17:50:46.527Z,41.00
2018-07-17T17:53:15.362Z,40.80
2018-07-17T17:55:44.231Z,41.10
2018-07-17T17:58:14.095Z,41.20
2018-07-17T18:00:44.172Z,41.30
2018-07-17T18:03:13.110Z,41.60
2018-07-17T18:05:41.994Z,41.70
2018-07-17T18:08:10.978Z,41.50
2018-07-17T18:10:39.861Z,42.70
2018-07-17T18:13:08.827Z,42.60
2018-07-17T18:15:38.060Z,43.30
2018-07-17T18:18:07.102Z,43.90
2018-07-17T18:20:36.181Z,44.00
2018-07-17T18:23:05.236Z,44.20
2018-07-17T18:28:11.553Z,44.40
2018-07-17T18:30:40.527Z,44.60
2018-07-17T18:33:09.617Z,45.10
2018-07-17T18:35:38.581Z,45.10
2018-07-17T18:38:07.908Z,44.80
2018-07-17T18:40:36.954Z,45.20
2018-07-17T18:43:05.964Z,45.10
2018-07-17T18:45:34.945Z,45.70
2018-07-17T18:48:03.937Z,44.30
2018-07-17T18:53:02.877Z,45.00
2018-07-17T18:55:31.865Z,45.30
2018-07-17T18:58:00.910Z,45.10
2018-07-17T19:00:29.857Z,45.80
2018-07-17T19:02:59.021Z,45.50
2018-07-17T19:05:28.031Z,45.80
2018-07-17T19:10:25.724Z,46.00
2018-07-17T19:12:54.790Z,45.40
2018-07-17T19:15:24.180Z,45.80
2018-07-17T19:17:53.407Z,46.20
2018-07-17T19:20:22.511Z,46.00
2018-07-17T19:22:51.496Z,46.00
2018-07-17T19:25:20.530Z,46.30
2018-07-17T19:27:49.526Z,46.50
2018-07-17T19:30:18.612Z,46.00
2018-07-17T19:32:47.754Z,46.40
2018-07-17T19:35:16.849Z,46.80
2018-07-17T19:37:45.868Z,46.30
2018-07-17T19:40:15.020Z,45.80
2018-07-17T19:42:44.661Z,45.60
2018-07-17T19:45:13.681Z,46.10
2018-07-17T19:50:14.741Z,46.80
2018-07-17T19:52:43.897Z,46.80
2018-07-17T19:55:13.045Z,46.70
2018-07-17T19:57:43.081Z,46.80
2018-07-17T20:00:12.596Z,47.00
2018-07-17T20:02:41.661Z,47.30
2018-07-17T20:05:11.904Z,47.20
2018-07-17T20:07:40.882Z,47.30
2018-07-17T20:10:11.950Z,47.30
2018-07-17T20:12:40.925Z,47.20
2018-07-17T20:15:09.935Z,47.70
2018-07-17T20:17:39.101Z,47.40
2018-07-17T20:20:09.366Z,47.60
2018-07-17T20:22:38.783Z,47.70
2018-07-17T20:25:08.013Z,47.70
2018-07-17T20:27:36.981Z,47.90
2018-07-17T20:30:06.041Z,47.10
2018-07-17T20:32:35.009Z,47.30
2018-07-17T20:35:04.154Z,47.80
2018-07-17T20:37:33.216Z,47.30
2018-07-17T20:42:31.933Z,47.60
2018-07-17T20:45:00.965Z,47.80
2018-07-17T20:47:30.108Z,47.70
2018-07-17T20:49:59.132Z,47.50
2018-07-17T20:52:28.552Z,48.10
2018-07-17T20:54:58.016Z,48.40
2018-07-17T20:57:27.381Z,48.40
2018-07-17T20:59:56.705Z,48.10
2018-07-17T21:02:26.816Z,47.80
2018-07-17T21:04:55.980Z,48.10
2018-07-17T21:07:25.400Z,47.90
2018-07-17T21:09:54.366Z,48.20
2018-07-17T21:12:23.302Z,48.40
2018-07-17T21:14:52.433Z,48.50
2018-07-17T21:17:21.425Z,48.50
2018-07-17T21:19:50.527Z,48.90
2018-07-17T21:22:19.859Z,48.80
2018-07-17T21:24:49.081Z,48.40
2018-07-17T21:27:18.125Z,48.90
2018-07-17T21:29:47.277Z,48.90
2018-07-17T21:32:16.371Z,49.20
2018-07-17T21:34:46.306Z,49.30
2018-07-17T21:37:15.275Z,49.20
2018-07-17T21:39:44.501Z,49.30
2018-07-17T21:44:42.388Z,48.90
2018-07-17T21:47:11.389Z,49.00
2018-07-17T21:49:40.713Z,49.50
2018-07-17T21:52:09.688Z,49.40
2018-07-17T21:54:39.137Z,49.10
2018-07-17T21:57:08.201Z,49.30
2018-07-17T21:59:37.273Z,49.30
2018-07-17T22:02:06.328Z,49.10
2018-07-17T22:04:35.311Z,49.30
2018-07-17T22:07:04.454Z,49.20
2018-07-17T22:09:33.533Z,49.40
2018-07-17T22:12:02.519Z,49.50
2018-07-17T22:14:31.520Z,49.10
2018-07-17T22:17:00.525Z,49.50
2018-07-17T22:19:29.503Z,49.60
2018-07-17T22:21:58.455Z,49.20
2018-07-17T22:26:56.109Z,49.20
2018-07-17T22:29:25.080Z,49.50
2018-07-17T22:31:54.033Z,49.30
2018-07-17T22:34:23.073Z,49.40
2018-07-17T22:36:52.033Z,49.90
2018-07-17T22:39:21.041Z,49.50
2018-07-17T22:41:50.056Z,48.90
2018-07-17T22:44:19.066Z,49.00
2018-07-17T22:46:48.026Z,49.50
2018-07-17T22:49:20.906Z,49.60
2018-07-17T22:51:51.332Z,49.60
2018-07-17T22:54:20.369Z,49.90
2018-07-17T22:56:49.345Z,49.20
2018-07-17T22:59:19.269Z,49.70
2018-07-17T23:01:48.651Z,50.00
2018-07-17T23:04:17.938Z,49.50
2018-07-17T23:06:46.997Z,49.60
2018-07-17T23:09:15.988Z,50.10
2018-07-17T23:14:13.484Z,49.90
2018-07-17T23:16:42.420Z,50.40
2018-07-17T23:19:11.500Z,50.00
2018-07-17T23:21:40.639Z,49.90
2018-07-17T23:24:09.609Z,50.00
2018-07-17T23:26:38.580Z,50.30
2018-07-17T23:29:07.510Z,50.20
2018-07-17T23:31:36.497Z,50.10
2018-07-17T23:34:05.433Z,50.20
2018-07-17T23:36:34.398Z,50.30
2018-07-17T23:39:03.907Z,50.60
2018-07-17T23:41:32.889Z,50.00
2018-07-17T23:44:01.850Z,50.00
2018-07-17T23:46:30.838Z,50.20
2018-07-17T23:48:59.836Z,50.20
2018-07-17T23:51:28.801Z,50.10
2018-07-17T23:53:57.817Z,49.60
2018-07-17T23:56:26.817Z,49.70
2018-07-17T23:58:55.737Z,49.50
